Airfield :
LOGIN :

Register | Disclaimer

   EN    FR    IT 

 










Legend :    VFR   Marginal VFR   IFR   Intensive IFR   Very Intensive IFR
Visi :
Ceiling :
>= 8 km
>= 3000ft
5 to 8 km
1000 to 3000 ft
1500m to 5 km
500 to 1000 ft
800 to 1500m
200 to 500 ft
< 800m
< 200 ft
Symbols :   Thunderstorms  Fog  Heavy snow  Heavy precipitations  Wind > 20 kt
SIGMETs :     Misc.  Thunderstorms  Icing  Turbulence  Mountain Waves  Volcanic Ashes






- Airport Elevation : 72 ft
- IATA code : UDE


EHVK - Volkel Airbase

CURRENT METAR :
  • 131125Z AUTO 09005KT 060V210 9999 FEW170 BKN250 31/18 Q1011 BLU NOSIG

EXPIRED METARs :
  • 131055Z AUTO 15004KT 070V190 9999 BKN170 OVC280 30/17 Q1011 BLU NOSIG
  • 131025Z AUTO VRB04KT 9999 BKN160 OVC210 29/18 Q1011 BLU
  • 130955Z AUTO 15003KT 070V210 9999 BKN200 28/19 Q1011 BLU
  • 130944Z AUTO 15004KT 070V210 9999 BKN120 BKN240 28/19 Q1011 BLU
  • 130925Z AUTO 14005KT 120V200 9999 OVC120 26/20 Q1011 BLU NOSIG
  • 130855Z AUTO 14004KT 100V190 9999 BKN140 26/20 Q1011 BLU NOSIG

TAF TAF EHVK
Valid from the 13 at 09:00 until the 13 at 21:00 UTC


130829Z 1309/1321 VRB02KT CAVOK
BECMG 1313/1315 19005KT
TEMPO 1313/1321 4000 SHRA SCT050CB SCT080
PROB40
TEMPO 1313/1321 VRB18G38KT 2500 TSRAGR SCT050CB BKN080



MET'MAP, your aeronautical weather chart ! - Copyright ORBIFLY December 2007 - Disclaimer

ORBIFLY MET'MAP TEAM :

Programming & Development : Alexandra Zaïnal
Concept & original design : Baudouin d'Aumeries
Assistance for programming : Marc-Olivier Méhu
Technical & hardware support : Manuel Goepfert

Contact : metmap@orbifly.com




SOURCES & CREDITS :

   NOAA